^^
Station Historical Data
 
Daily Summary for September 03, 2015 Units:  English    Metric   Both
« Previous Day
Next Day »
Daily Weekly Monthly Yearly Custom
  Current: High: Low: Average:
Temperature: 86.4 °F 91.3 °F 76.8 °F 86.4 °F
Dew Point: 76.7 °F 78.2 °F 73.8 °F 76.9 °F
Humidity: 73% 96% 62% 74%
Wind Speed: 5.8mph 9.2mph 0.0mph 4.2mph
Wind Gust: 5.8mph 9.2mph - -
WindWNW - - West
Pressure: 29.86 in 29.98 in 29.86 in -
Precipitation: 0.00 in      
Historical Graphs
 
 
Tabular Data for September 03, 2015
Time Temperature Dew Point Pressure Wind Wind Speed Wind Gust Humidity Rainfall Rate (Hourly) solar Conditions
00:00 77.4 °F 75.9 °F 29.96 in Calm   1.0 mph 95% 0.00 in 0.0 W/m2 CLR
00:15 78.3 °F 76.4 °F 29.97 in WNW 1.0 mph 2.0 mph 94% 0.00 in 0.0 W/m2 CLR
00:20 78.3 °F 76.4 °F 29.97 in West 1.0 mph 2.0 mph 94% 0.00 in 0.0 W/m2 CLR
00:25 78.7 °F 76.5 °F 29.97 in WSW 2.0 mph 4.0 mph 93% 0.00 in 0.0 W/m2 CLR
00:30 78.7 °F 76.5 °F 29.97 in WSW 2.0 mph 4.0 mph 93% 0.00 in 0.0 W/m2 CLR
07:14 76.8 °F 75.3 °F 29.95 in WSW 1.2 mph 1.2 mph 95% 0.00 in 0.0 W/m2 CLR
07:19 76.8 °F 75.3 °F 29.95 in Calm     95% 0.00 in 0.0 W/m2 CLR
07:24 76.8 °F 75.3 °F 29.95 in SW 1.2 mph 1.2 mph 95% 0.00 in 0.0 W/m2 CLR
07:29 77.0 °F 75.8 °F 29.95 in WSW 1.2 mph 1.2 mph 96% 0.00 in 0.0 W/m2 CLR
07:34 77.3 °F 76.1 °F 29.96 in Calm     96% 0.00 in 0.0 W/m2 CLR
07:43 77.7 °F 76.2 °F 29.96 in WSW 1.2 mph 1.2 mph 95% 0.00 in 0.0 W/m2 CLR
07:48 77.9 °F 76.4 °F 29.96 in West 2.0 mph 2.0 mph 95% 0.00 in 0.0 W/m2 CLR
07:53 78.2 °F 76.3 °F 29.97 in WSW 2.3 mph 2.3 mph 94% 0.00 in 0.0 W/m2 CLR
07:58 78.4 °F 76.5 °F 29.97 in WSW 2.3 mph 2.3 mph 94% 0.00 in 0.0 W/m2 CLR
08:10 77.0 °F 73.8 °F 29.98 in North 2.3 mph   90% 0.00 in 0.0 W/m2 CLR
08:17 78.7 °F 76.5 °F 29.97 in WSW 3.5 mph 3.5 mph 93% 0.00 in 0.0 W/m2 CLR
08:22 79.4 °F 77.2 °F 29.97 in WSW 3.5 mph 3.5 mph 93% 0.00 in 0.0 W/m2 CLR
08:27 79.7 °F 77.2 °F 29.97 in WSW 1.2 mph 1.2 mph 92% 0.00 in 0.0 W/m2 CLR
08:32 80.2 °F 77.7 °F 29.97 in WSW 2.3 mph 2.3 mph 92% 0.00 in 0.0 W/m2 CLR
08:37 80.5 °F 77.6 °F 29.97 in WSW 2.3 mph 2.3 mph 91% 0.00 in 0.0 W/m2 CLR
08:42 80.9 °F 77.7 °F 29.97 in SW 3.5 mph 3.5 mph 90% 0.00 in 0.0 W/m2 CLR
08:47 81.2 °F 77.6 °F 29.97 in WNW 4.0 mph 4.0 mph 89% 0.00 in 0.0 W/m2 CLR
08:52 81.4 °F 77.5 °F 29.97 in WSW 3.5 mph 3.5 mph 88% 0.00 in 0.0 W/m2 CLR
08:57 81.7 °F 77.8 °F 29.97 in WSW 3.5 mph 3.5 mph 88% 0.00 in 0.0 W/m2 CLR
09:02 82.1 °F 78.2 °F 29.97 in SW 1.2 mph 1.2 mph 88% 0.00 in 0.0 W/m2 CLR
09:07 82.5 °F 77.9 °F 29.97 in WSW 3.5 mph 3.5 mph 86% 0.00 in 0.0 W/m2 CLR
09:12 82.6 °F 77.6 °F 29.97 in WNW 4.6 mph 4.6 mph 85% 0.00 in 0.0 W/m2 CLR
09:17 82.8 °F 77.8 °F 29.97 in West 3.5 mph 3.5 mph 85% 0.00 in 0.0 W/m2 CLR
09:22 83.0 °F 77.7 °F 29.97 in West 6.0 mph 6.0 mph 84% 0.00 in 0.0 W/m2 CLR
09:27 83.2 °F 78.2 °F 29.97 in WSW 3.5 mph 3.5 mph 85% 0.00 in 0.0 W/m2 CLR
09:32 83.4 °F 77.7 °F 29.97 in WSW 3.5 mph 3.5 mph 83% 0.00 in 0.0 W/m2 CLR
09:37 83.6 °F 77.5 °F 29.97 in SW 3.5 mph 3.5 mph 82% 0.00 in 0.0 W/m2 CLR
09:42 83.7 °F 77.2 °F 29.97 in West 5.0 mph 5.0 mph 81% 0.00 in 0.0 W/m2 CLR
09:47 83.7 °F 76.9 °F 29.97 in WSW 8.1 mph 8.1 mph 80% 0.00 in 0.0 W/m2 CLR
09:52 83.8 °F 77.7 °F 29.97 in WNW 3.5 mph 3.5 mph 82% 0.00 in 0.0 W/m2 CLR
09:57 83.9 °F 77.4 °F 29.97 in WSW 3.5 mph 3.5 mph 81% 0.00 in 0.0 W/m2 CLR
10:02 84.1 °F 77.3 °F 29.97 in WSW 4.6 mph 4.6 mph 80% 0.00 in 0.0 W/m2 CLR
10:07 84.5 °F 78.0 °F 29.97 in NNW 3.5 mph 3.5 mph 81% 0.00 in 0.0 W/m2 CLR
10:12 84.9 °F 78.0 °F 29.96 in WSW 5.8 mph 5.8 mph 80% 0.00 in 0.0 W/m2 CLR
10:17 84.9 °F 77.3 °F 29.96 in SSE 4.6 mph 4.6 mph 78% 0.00 in 0.0 W/m2 CLR
10:22 84.8 °F 77.2 °F 29.96 in West 6.9 mph 6.9 mph 78% 0.00 in 0.0 W/m2 CLR
10:27 85.1 °F 77.5 °F 29.96 in WNW 3.5 mph 3.5 mph 78% 0.00 in 0.0 W/m2 CLR
10:32 85.2 °F 76.8 °F 29.96 in West 8.0 mph 8.0 mph 76% 0.00 in 0.0 W/m2 CLR
10:37 85.2 °F 77.2 °F 29.96 in WSW 4.6 mph 4.6 mph 77% 0.00 in 0.0 W/m2 CLR
10:42 85.3 °F 77.3 °F 29.96 in WNW 4.0 mph 4.0 mph 77% 0.00 in 0.0 W/m2 CLR
10:47 85.6 °F 77.9 °F 29.96 in West 2.3 mph 2.3 mph 78% 0.00 in 0.0 W/m2 CLR
10:52 86.0 °F 77.9 °F 29.96 in WNW 4.6 mph 4.6 mph 77% 0.00 in 0.0 W/m2 CLR
10:57 86.0 °F 77.5 °F 29.96 in West 5.8 mph 5.8 mph 76% 0.00 in 0.0 W/m2 CLR
11:02 86.3 °F 77.4 °F 29.96 in SSW 2.0 mph 2.0 mph 75% 0.00 in 0.0 W/m2 CLR
11:07 86.9 °F 77.2 °F 29.96 in West 5.0 mph 5.0 mph 73% 0.00 in 0.0 W/m2 CLR
11:12 86.6 °F 76.9 °F 29.96 in WNW 3.5 mph 3.5 mph 73% 0.00 in 0.0 W/m2 CLR
11:17 87.0 °F 76.9 °F 29.96 in WSW 4.0 mph 4.0 mph 72% 0.00 in 0.0 W/m2 FEW
11:22 86.8 °F 76.7 °F 29.96 in West 5.8 mph 5.8 mph 72% 0.00 in 0.0 W/m2 FEW
11:27 86.9 °F 77.6 °F 29.96 in WSW 4.0 mph 4.0 mph 74% 0.00 in 0.0 W/m2 FEW
11:32 87.2 °F 76.2 °F 29.96 in WNW 4.6 mph 4.6 mph 70% 0.00 in 0.0 W/m2 FEW
11:37 87.3 °F 77.2 °F 29.95 in WNW 4.0 mph 4.0 mph 72% 0.00 in 0.0 W/m2 FEW
11:42 87.3 °F 76.7 °F 29.95 in West 5.8 mph 5.8 mph 71% 0.00 in 0.0 W/m2 FEW
11:47 87.3 °F 77.2 °F 29.94 in West 4.6 mph 4.6 mph 72% 0.00 in 0.0 W/m2 FEW
11:52 87.7 °F 78.0 °F 29.94 in WSW 2.3 mph 2.3 mph 73% 0.00 in 0.0 W/m2 FEW
11:57 87.6 °F 77.0 °F 29.94 in West 6.9 mph 6.9 mph 71% 0.00 in 0.0 W/m2 FEW
12:02 87.8 °F 77.6 °F 29.95 in WSW 2.3 mph 2.3 mph 72% 0.00 in 0.0 W/m2 FEW
12:07 88.2 °F 78.0 °F 29.95 in WSW 3.5 mph 3.5 mph 72% 0.00 in 0.0 W/m2 FEW
12:12 88.1 °F 76.6 °F 29.95 in WSW 8.1 mph 8.1 mph 69% 0.00 in 0.0 W/m2 FEW
12:17 88.6 °F 76.2 °F 29.95 in NW 6.9 mph 6.9 mph 67% 0.00 in 0.0 W/m2 BKN
12:22 89.1 °F 77.6 °F 29.94 in WNW 4.0 mph 4.0 mph 69% 0.00 in 0.0 W/m2 BKN
12:27 89.3 °F 76.9 °F 29.94 in West 5.8 mph 5.8 mph 67% 0.00 in 0.0 W/m2 BKN
12:32 89.1 °F 77.6 °F 29.94 in West 3.5 mph 3.5 mph 69% 0.00 in 0.0 W/m2 BKN
12:37 89.4 °F 77.4 °F 29.94 in NW 4.6 mph 4.6 mph 68% 0.00 in 0.0 W/m2 BKN
12:42 89.0 °F 77.5 °F 29.94 in West 3.5 mph 3.5 mph 69% 0.00 in 0.0 W/m2 BKN
12:47 88.9 °F 77.8 °F 29.93 in WSW 3.5 mph 3.5 mph 70% 0.00 in 0.0 W/m2 BKN
12:52 88.9 °F 76.5 °F 29.93 in WSW 3.5 mph 3.5 mph 67% 0.00 in 0.0 W/m2 BKN
12:57 88.9 °F 77.0 °F 29.93 in WSW 4.6 mph 4.6 mph 68% 0.00 in 0.0 W/m2 BKN
13:02 89.0 °F 77.1 °F 29.93 in WSW 4.0 mph 4.0 mph 68% 0.00 in 0.0 W/m2 BKN
13:07 89.1 °F 76.3 °F 29.93 in WNW 3.5 mph 3.5 mph 66% 0.00 in 0.0 W/m2 BKN
13:12 89.3 °F 76.4 °F 29.93 in West 5.8 mph 5.8 mph 66% 0.00 in 0.0 W/m2 BKN
13:17 89.5 °F 76.6 °F 29.93 in West 4.6 mph 4.6 mph 66% 0.00 in 0.0 W/m2 BKN
13:22 89.8 °F 76.5 °F 29.92 in WSW 9.2 mph 9.2 mph 65% 0.00 in 0.0 W/m2 BKN
13:27 89.8 °F 76.5 °F 29.92 in WSW 3.5 mph 3.5 mph 65% 0.00 in 0.0 W/m2 BKN
13:32 90.1 °F 76.7 °F 29.92 in West 4.0 mph 4.0 mph 65% 0.00 in 0.0 W/m2 BKN
13:37 90.2 °F 76.8 °F 29.92 in WSW 8.1 mph 8.1 mph 65% 0.00 in 0.0 W/m2 BKN
13:42 90.5 °F 76.2 °F 29.92 in WSW 7.0 mph 7.0 mph 63% 0.00 in 0.0 W/m2 BKN
13:47 90.3 °F 76.0 °F 29.92 in WNW 6.0 mph 6.0 mph 63% 0.00 in 0.0 W/m2 BKN
13:52 90.4 °F 76.6 °F 29.92 in WNW 6.0 mph 6.0 mph 64% 0.00 in 0.0 W/m2 BKN
13:57 90.6 °F 76.3 °F 29.91 in West 4.0 mph 4.0 mph 63% 0.00 in 0.0 W/m2 BKN
14:02 91.0 °F 76.2 °F 29.92 in West 4.6 mph 4.6 mph 62% 0.00 in 0.0 W/m2 BKN
14:07 91.3 °F 76.9 °F 29.92 in WSW 5.8 mph 5.8 mph 63% 0.00 in 0.0 W/m2 BKN
14:12 91.0 °F 76.2 °F 29.92 in West 4.6 mph 4.6 mph 62% 0.00 in 0.0 W/m2 BKN
14:17 90.9 °F 76.6 °F 29.92 in WSW 8.1 mph 8.1 mph 63% 0.00 in 0.0 W/m2 SCT
14:22 90.8 °F 76.5 °F 29.92 in West 8.1 mph 8.1 mph 63% 0.00 in 0.0 W/m2 SCT
14:27 90.7 °F 76.8 °F 29.92 in SW 4.6 mph 4.6 mph 64% 0.00 in 0.0 W/m2 SCT
14:32 90.7 °F 76.4 °F 29.91 in WSW 4.6 mph 4.7 mph 63% 0.00 in 0.0 W/m2 SCT
14:37 90.4 °F 77.0 °F 29.91 in WNW 5.8 mph 5.8 mph 65% 0.00 in 0.0 W/m2 SCT
14:42 90.2 °F 77.3 °F 29.91 in WNW 6.0 mph 6.0 mph 66% 0.00 in 0.0 W/m2 SCT
14:47 89.7 °F 76.4 °F 29.91 in WSW 4.6 mph 4.6 mph 65% 0.00 in 0.0 W/m2 SCT
14:52 89.4 °F 77.0 °F 29.91 in WNW 6.9 mph 6.9 mph 67% 0.00 in 0.0 W/m2 SCT
14:57 89.1 °F 76.7 °F 29.91 in West 7.0 mph 7.0 mph 67% 0.00 in 0.0 W/m2 SCT
15:02 88.8 °F 76.9 °F 29.91 in West 4.6 mph 4.6 mph 68% 0.00 in 0.0 W/m2 SCT
15:07 88.7 °F 77.2 °F 29.90 in WSW 4.0 mph 4.0 mph 69% 0.00 in 0.0 W/m2 SCT
15:12 88.3 °F 77.3 °F 29.91 in NW 8.1 mph 8.1 mph 70% 0.00 in 0.0 W/m2 SCT
15:17 87.5 °F 76.9 °F 29.91 in WNW 4.0 mph 4.0 mph 71% 0.00 in 0.0 W/m2 BKN
15:22 87.1 °F 76.5 °F 29.91 in WSW 7.0 mph 7.0 mph 71% 0.00 in 0.0 W/m2 BKN
15:27 86.6 °F 76.9 °F 29.91 in WSW 6.9 mph 6.9 mph 73% 0.00 in 0.0 W/m2 BKN
15:32 86.1 °F 76.4 °F 29.90 in WNW 3.5 mph 3.5 mph 73% 0.00 in 0.0 W/m2 BKN
15:37 85.7 °F 76.5 °F 29.90 in WNW 4.6 mph 4.6 mph 74% 0.00 in 0.0 W/m2 BKN
15:42 85.6 °F 76.8 °F 29.90 in West 2.3 mph 2.3 mph 75% 0.00 in 0.0 W/m2 BKN
15:47 85.5 °F 77.1 °F 29.90 in WNW 3.5 mph 3.5 mph 76% 0.00 in 0.0 W/m2 BKN
15:52 85.4 °F 77.4 °F 29.90 in SW 3.0 mph 3.0 mph 77% 0.00 in 0.0 W/m2 BKN
15:57 85.3 °F 77.7 °F 29.89 in WNW 2.3 mph 2.3 mph 78% 0.00 in 0.0 W/m2 BKN
16:02 85.8 °F 77.4 °F 29.89 in WSW 6.0 mph 6.0 mph 76% 0.00 in 0.0 W/m2 BKN
16:07 86.4 °F 77.1 °F 29.89 in SW 5.8 mph 5.8 mph 74% 0.00 in 0.0 W/m2 BKN
16:12 86.9 °F 77.2 °F 29.89 in SW 6.9 mph 6.9 mph 73% 0.00 in 0.0 W/m2 BKN
16:17 87.7 °F 77.1 °F 29.89 in West 3.5 mph 3.5 mph 71% 0.00 in 0.0 W/m2 CLR
16:22 88.3 °F 76.8 °F 29.89 in WNW 4.6 mph 4.6 mph 69% 0.00 in 0.0 W/m2 CLR
16:27 89.2 °F 77.3 °F 29.88 in West 1.2 mph 1.2 mph 68% 0.00 in 0.0 W/m2 CLR
16:32 89.6 °F 77.2 °F 29.89 in NNW 3.5 mph 3.5 mph 67% 0.00 in 0.0 W/m2 CLR
16:37 89.8 °F 76.5 °F 29.89 in WNW 5.8 mph 5.8 mph 65% 0.00 in 0.0 W/m2 CLR
16:42 89.8 °F 76.5 °F 29.88 in WSW 4.6 mph 4.6 mph 65% 0.00 in 0.0 W/m2 CLR
16:47 90.3 °F 76.0 °F 29.88 in West 4.6 mph 4.6 mph 63% 0.00 in 0.0 W/m2 CLR
16:52 90.7 °F 76.4 °F 29.88 in NW 3.0 mph 3.0 mph 63% 0.00 in 0.0 W/m2 CLR
16:57 91.1 °F 76.7 °F 29.87 in WSW 5.0 mph 5.0 mph 63% 0.00 in 0.0 W/m2 CLR
17:02 90.7 °F 75.9 °F 29.87 in West 5.8 mph 5.8 mph 62% 0.00 in 0.0 W/m2 CLR
17:07 91.1 °F 76.3 °F 29.87 in NE 3.5 mph 3.5 mph 62% 0.00 in 0.0 W/m2 CLR
17:12 91.3 °F 76.5 °F 29.87 in WSW 5.0 mph 5.0 mph 62% 0.00 in 0.0 W/m2 CLR
17:17 90.8 °F 76.0 °F 29.87 in WNW 5.0 mph 5.0 mph 62% 0.00 in 0.0 W/m2 CLR
17:22 90.4 °F 75.6 °F 29.87 in WNW 5.8 mph 5.8 mph 62% 0.00 in 0.0 W/m2 CLR
17:27 90.5 °F 76.2 °F 29.87 in WNW 2.0 mph 2.0 mph 63% 0.00 in 0.0 W/m2 CLR
17:32 90.1 °F 75.8 °F 29.87 in West 4.6 mph 4.6 mph 63% 0.00 in 0.0 W/m2 CLR
17:37 89.8 °F 76.0 °F 29.86 in WSW 3.5 mph 3.5 mph 64% 0.00 in 0.0 W/m2 CLR
17:42 89.6 °F 76.3 °F 29.86 in SW 2.3 mph 2.3 mph 65% 0.00 in 0.0 W/m2 CLR
17:47 89.4 °F 76.1 °F 29.87 in West 3.0 mph 3.0 mph 65% 0.00 in 0.0 W/m2 CLR
17:52 89.1 °F 76.3 °F 29.86 in WSW 3.5 mph 3.5 mph 66% 0.00 in 0.0 W/m2 CLR
17:57 88.9 °F 76.5 °F 29.86 in West 3.5 mph 3.5 mph 67% 0.00 in 0.0 W/m2 CLR
18:02 88.8 °F 76.9 °F 29.87 in WSW 3.5 mph 3.5 mph 68% 0.00 in 0.0 W/m2 CLR
18:07 88.6 °F 76.2 °F 29.87 in WNW 3.5 mph 3.5 mph 67% 0.00 in 0.0 W/m2 CLR
18:10 88.5 °F 76.6 °F 29.87 in WSW 3.0 mph 3.0 mph 68% 0.00 in 0.0 W/m2 CLR
18:15 88.4 °F 76.9 °F 29.86 in WNW 2.3 mph 2.3 mph 69% 0.00 in 0.0 W/m2 CLR
18:20 88.2 °F 77.2 °F 29.86 in WSW 3.5 mph 3.5 mph 70% 0.00 in 0.0 W/m2 CLR
18:25 88.2 °F 77.2 °F 29.86 in West 3.5 mph 3.5 mph 70% 0.00 in 0.0 W/m2 CLR
18:30 88.2 °F 76.7 °F 29.86 in WNW 3.5 mph 3.5 mph 69% 0.00 in 0.0 W/m2 CLR
18:35 88.0 °F 76.5 °F 29.86 in SSW 3.5 mph 3.5 mph 69% 0.00 in 0.0 W/m2 CLR
18:40 88.1 °F 76.6 °F 29.86 in WNW 3.5 mph 3.5 mph 69% 0.00 in 0.0 W/m2 CLR
18:50 88.9 °F 76.5 °F 29.86 in SW 2.3 mph 2.3 mph 67% 0.00 in 0.0 W/m2 CLR
18:55 89.2 °F 76.4 °F 29.87 in WSW 3.5 mph 3.5 mph 66% 0.00 in 0.0 W/m2 CLR
19:00 89.3 °F 77.3 °F 29.87 in WSW 3.5 mph 3.5 mph 68% 0.00 in 0.0 W/m2 CLR
19:05 88.6 °F 77.1 °F 29.87 in West 3.5 mph 3.5 mph 69% 0.00 in 0.0 W/m2 CLR
19:10 87.7 °F 76.7 °F 29.87 in WSW 8.1 mph 8.1 mph 70% 0.00 in 0.0 W/m2 CLR
19:15 87.0 °F 76.9 °F 29.86 in West 5.8 mph 5.8 mph 72% 0.00 in 0.0 W/m2 CLR
19:20 86.4 °F 76.7 °F 29.86 in WNW 5.8 mph 5.8 mph 73% 0.00 in 0.0 W/m2 CLR
Lake Mary, FL, USA
Compliments of Weather Underground